Time;durP1;ratioP1;P1;durP2;ratioP2;P2;SDS_P1;SDS_P2;PMS_P1;PMS_P2;Temp;Humidity;BMP_temperature;BMP_pressure;BME280_temperature;BME280_humidity;BME280_pressure;Samples;Min_cycle;Max_cycle;Signal;HPM_P1;HPM_P2
2024/02/15 00:00:43;;;;;;;4.10;3.10;;;8.70;99.90;;;9.50;100.00;98407.09;10461107;28;20696;-67
2024/02/15 00:05:46;;;;;;;3.38;3.08;;;8.80;99.90;;;9.55;100.00;98403.19;10460947;28;20232;-67
2024/02/15 00:10:50;;;;;;;3.00;2.78;;;8.80;99.90;;;9.58;100.00;98405.06;10460026;28;20231;-67
2024/02/15 00:15:55;;;;;;;2.80;2.60;;;8.80;99.90;;;9.62;100.00;98399.41;10460332;28;20239;-66
2024/02/15 00:20:59;;;;;;;2.60;2.40;;;8.80;99.90;;;9.57;100.00;98403.31;10458619;28;20311;-66
2024/02/15 00:26:03;;;;;;;2.45;2.22;;;8.80;99.90;;;9.52;100.00;98404.66;10457631;28;20542;-66
2024/02/15 00:31:08;;;;;;;2.63;2.42;;;8.80;99.90;;;9.54;100.00;98408.19;10462269;28;20385;-66
2024/02/15 00:36:12;;;;;;;3.00;2.70;;;8.70;99.90;;;9.62;100.00;98407.94;10457945;28;20356;-66
2024/02/15 00:41:15;;;;;;;3.17;2.38;;;8.80;99.90;;;9.60;100.00;98413.72;10458973;28;20240;-66
2024/02/15 00:46:20;;;;;;;4.72;3.15;;;8.70;99.90;;;9.55;100.00;98413.41;10458500;28;20317;-66
2024/02/15 00:51:23;;;;;;;3.78;3.28;;;8.70;99.90;;;9.50;100.00;98417.31;10457826;28;20375;-66
2024/02/15 00:56:27;;;;;;;4.05;3.10;;;8.70;99.90;;;9.51;100.00;98410.53;10456536;28;20824;-67
2024/02/15 01:01:32;;;;;;;2.90;2.70;;;8.80;99.90;;;9.50;100.00;98406.19;10465601;22;20780;-63
2024/02/15 01:06:35;;;;;;;2.90;2.70;;;8.70;99.90;;;9.45;100.00;98394.00;10414119;28;20295;-63
2024/02/15 01:11:39;;;;;;;2.90;2.65;;;8.70;99.90;;;9.45;100.00;98395.69;10414869;28;20239;-63
2024/02/15 01:16:44;;;;;;;3.90;3.00;;;8.70;99.90;;;9.41;100.00;98399.69;10420617;28;20306;-63
2024/02/15 01:21:47;;;;;;;2.42;2.30;;;8.70;99.90;;;9.44;100.00;98412.66;10420883;28;20267;-65
2024/02/15 01:26:50;;;;;;;3.90;3.60;;;8.70;99.90;;;9.42;100.00;98404.00;10419599;28;20855;-63
2024/02/15 01:31:55;;;;;;;7.22;6.55;;;8.70;99.90;;;9.43;100.00;98403.22;10421795;28;20232;-63
2024/02/15 01:36:59;;;;;;;6.78;6.07;;;8.70;99.90;;;9.49;100.00;98390.00;10417688;28;20257;-63
2024/02/15 01:42:02;;;;;;;6.15;5.57;;;8.70;99.90;;;9.50;100.00;98379.03;10419387;28;20267;-65
2024/02/15 01:47:08;;;;;;;4.90;4.50;;;8.80;99.90;;;9.51;100.00;98380.81;10419103;28;20221;-63
2024/02/15 01:52:13;;;;;;;4.85;4.43;;;8.70;99.90;;;9.47;100.00;98382.25;10417535;28;20341;-65
2024/02/15 01:57:17;;;;;;;4.57;4.18;;;8.70;99.90;;;9.44;100.00;98376.94;10417333;28;20382;-65
2024/02/15 02:02:23;;;;;;;4.13;3.40;;;8.70;99.90;;;9.44;100.00;98382.06;10419410;28;20379;-66
2024/02/15 02:07:27;;;;;;;3.25;2.92;;;8.60;99.90;;;9.31;100.00;98384.50;10418548;28;21019;-65
2024/02/15 02:12:30;;;;;;;3.25;2.95;;;8.60;99.90;;;9.26;100.00;98383.28;10417894;28;20229;-65
2024/02/15 02:17:36;;;;;;;3.72;3.40;;;8.50;99.90;;;9.27;100.00;98382.53;10419471;28;20311;-65
2024/02/15 02:22:40;;;;;;;3.42;3.13;;;8.50;99.90;;;9.28;100.00;98384.31;10419023;28;20225;-65
2024/02/15 02:27:46;;;;;;;3.47;3.28;;;8.50;99.90;;;9.25;100.00;98378.97;10417061;28;20363;-65
2024/02/15 02:32:49;;;;;;;2.95;2.75;;;8.40;99.90;;;9.17;100.00;98385.19;10419850;28;20281;-65
2024/02/15 02:37:54;;;;;;;2.80;2.60;;;8.40;99.90;;;9.08;100.00;98374.34;10431552;28;20221;-65
2024/02/15 02:42:59;;;;;;;3.25;2.95;;;8.30;99.90;;;8.98;100.00;98371.13;10434162;28;20303;-66
2024/02/15 02:48:02;;;;;;;3.30;3.10;;;8.20;99.90;;;8.89;100.00;98383.22;10430476;28;20233;-67
2024/02/15 02:53:06;;;;;;;3.88;3.28;;;8.10;99.90;;;8.85;100.00;98396.53;10432266;28;20248;-65
2024/02/15 02:58:10;;;;;;;3.22;3.03;;;8.10;99.90;;;8.84;100.00;98389.66;10430525;28;20224;-66
2024/02/15 03:03:14;;;;;;;3.22;3.03;;;8.00;99.90;;;8.80;100.00;98377.47;10429707;28;20233;-65
2024/02/15 03:08:17;;;;;;;3.58;2.78;;;8.00;99.90;;;8.71;100.00;98384.47;10428535;28;20224;-65
2024/02/15 03:13:22;;;;;;;3.25;3.03;;;7.90;99.90;;;8.62;100.00;98381.25;10431685;28;20228;-65
2024/02/15 03:18:25;;;;;;;3.30;3.00;;;7.90;99.90;;;8.62;100.00;98381.25;10433511;28;20289;-65
2024/02/15 03:23:28;;;;;;;3.15;2.85;;;7.80;99.90;;;8.60;100.00;98373.47;10430666;28;20336;-65
2024/02/15 03:28:35;;;;;;;3.17;2.80;;;7.80;99.90;;;8.66;100.00;98388.31;10430049;28;20224;-66
2024/02/15 03:33:39;;;;;;;3.67;2.45;;;7.80;99.90;;;8.59;100.00;98389.56;10429742;28;20328;-65
2024/02/15 03:38:44;;;;;;;2.65;2.50;;;7.80;99.90;;;8.52;100.00;98379.66;10432608;28;20229;-65
2024/02/15 03:43:49;;;;;;;2.65;2.50;;;7.80;99.90;;;8.56;100.00;98377.47;10433706;28;20225;-65
2024/02/15 03:48:54;;;;;;;2.57;2.40;;;7.80;99.90;;;8.51;100.00;98380.47;10430260;28;20310;-65
2024/02/15 03:53:58;;;;;;;2.70;2.50;;;7.70;99.90;;;8.47;100.00;98381.91;10432471;28;20232;-65
2024/02/15 03:59:04;;;;;;;2.73;2.53;;;7.70;99.90;;;8.43;100.00;98386.63;10429000;28;20751;-65
2024/02/15 04:04:07;;;;;;;3.43;2.57;;;7.70;99.90;;;8.44;100.00;98384.22;10429108;28;20282;-65
2024/02/15 04:09:11;;;;;;;2.80;2.60;;;7.70;99.90;;;8.43;100.00;98384.97;10428991;28;20230;-65
2024/02/15 04:14:16;;;;;;;2.58;2.45;;;7.70;99.90;;;8.33;100.00;98379.97;10432925;28;20229;-65
2024/02/15 04:19:19;;;;;;;3.87;3.47;;;7.50;99.90;;;8.18;100.00;98381.34;10437421;28;20683;-65
2024/02/15 04:24:25;;;;;;;3.00;2.80;;;7.40;99.90;;;8.09;100.00;98382.44;10437099;28;20315;-65
2024/02/15 04:29:30;;;;;;;2.47;2.37;;;7.30;99.90;;;7.94;100.00;98385.50;10437185;28;20225;-65
2024/02/15 04:34:33;;;;;;;2.90;2.67;;;7.20;99.90;;;7.75;100.00;98394.25;10436908;28;20228;-65
2024/02/15 04:39:37;;;;;;;4.00;2.80;;;7.00;99.90;;;7.69;100.00;98388.72;10437012;28;20233;-65
2024/02/15 04:44:41;;;;;;;3.50;2.87;;;7.00;99.90;;;7.56;100.00;98388.56;10435866;28;20802;-65
2024/02/15 04:49:44;;;;;;;3.40;3.20;;;6.80;99.90;;;7.49;100.00;98389.72;10436588;28;20263;-65
2024/02/15 04:54:48;;;;;;;3.33;2.83;;;6.70;99.90;;;7.49;100.00;98401.56;10436776;28;20320;-65
2024/02/15 04:59:53;;;;;;;3.33;3.13;;;6.70;99.90;;;7.38;100.00;98396.53;10434872;28;20227;-65
2024/02/15 05:04:57;;;;;;;3.63;3.13;;;6.60;99.90;;;7.35;100.00;98392.84;10432630;28;20715;-65
2024/02/15 05:10:06;;;;;;;3.43;3.13;;;6.60;99.90;;;7.28;100.00;98388.06;10432699;28;20660;-65
2024/02/15 05:15:11;;;;;;;3.00;2.80;;;6.50;99.90;;;7.26;100.00;98381.97;10434035;28;20275;-65
2024/02/15 05:20:17;;;;;;;3.53;3.23;;;6.50;99.90;;;7.17;100.00;98383.03;10433191;28;20225;-65
2024/02/15 05:25:23;;;;;;;3.77;3.40;;;6.40;99.90;;;7.11;100.00;98377.47;10433090;28;20237;-65
2024/02/15 05:30:32;;;;;;;3.63;3.40;;;6.30;99.90;;;7.12;100.00;98365.63;10430166;28;20229;-65
2024/02/15 05:35:36;;;;;;;4.20;3.87;;;6.50;99.90;;;7.28;100.00;98368.59;10435069;28;20392;-65
2024/02/15 05:40:39;;;;;;;3.97;3.67;;;6.60;99.90;;;7.52;100.00;98364.53;10428524;28;20225;-65
2024/02/15 05:45:45;;;;;;;3.30;3.00;;;6.70;99.90;;;7.44;100.00;98368.16;10431389;28;20259;-65
2024/02/15 05:50:49;;;;;;;3.40;3.10;;;6.50;99.90;;;7.39;100.00;98369.44;10430280;28;20273;-65
2024/02/15 05:55:52;;;;;;;5.97;4.50;;;6.60;99.90;;;7.39;100.00;98367.78;10429425;28;20257;-65
2024/02/15 06:01:01;;;;;;;5.30;4.80;;;6.70;99.90;;;7.36;100.00;98371.75;10432184;28;20608;-65
2024/02/15 06:06:06;;;;;;;5.00;4.33;;;6.70;99.90;;;7.45;100.00;98380.09;10430961;28;20383;-65
2024/02/15 06:11:10;;;;;;;4.83;4.43;;;6.90;99.90;;;7.62;100.00;98367.00;10427550;28;20553;-65
2024/02/15 06:16:15;;;;;;;4.27;3.90;;;7.00;99.90;;;7.78;100.00;98365.63;10431921;28;20228;-65
2024/02/15 06:21:18;;;;;;;3.90;3.40;;;7.10;99.90;;;7.87;100.00;98371.44;10430506;28;20235;-65
2024/02/15 06:26:22;;;;;;;4.93;4.53;;;7.20;99.90;;;7.90;100.00;98374.22;10430238;28;20233;-65
2024/02/15 06:42:11;;;;;;;5.80;5.40;;;7.20;99.90;;;7.90;100.00;98380.19;10428953;28;20252;-65
2024/02/15 06:47:18;;;;;;;5.70;5.20;;;7.30;99.90;;;7.98;100.00;98387.50;10429090;28;20348;-65
2024/02/15 06:52:22;;;;;;;5.50;5.07;;;7.30;99.90;;;7.96;100.00;98374.66;10430548;28;20327;-65
2024/02/15 06:57:26;;;;;;;6.60;5.30;;;7.30;99.90;;;8.06;100.00;98383.88;10427343;28;20233;-65
2024/02/15 07:02:32;;;;;;;6.47;5.87;;;7.30;99.90;;;8.08;100.00;98384.88;10430822;28;20235;-65
2024/02/15 07:07:35;;;;;;;5.50;5.10;;;7.30;99.90;;;8.15;100.00;98382.00;10432653;28;20225;-65
2024/02/15 07:12:39;;;;;;;5.73;4.93;;;7.40;99.90;;;8.16;100.00;98382.91;10430471;28;20264;-65
2024/02/15 07:17:44;;;;;;;5.67;5.20;;;7.50;99.90;;;8.24;100.00;98376.72;10432129;28;20240;-65
2024/02/15 07:22:47;;;;;;;5.97;5.47;;;7.50;99.90;;;8.36;100.00;98370.00;10430322;28;20911;-65
2024/02/15 07:27:52;;;;;;;5.57;5.10;;;7.60;99.90;;;8.42;100.00;98372.16;10426074;28;20225;-65
2024/02/15 07:32:56;;;;;;;6.40;5.80;;;7.60;99.90;;;8.42;100.00;98367.94;10427930;28;20583;-65
2024/02/15 07:38:01;;;;;;;7.13;6.45;;;7.70;99.90;;;8.51;100.00;98372.81;10428483;28;20656;-65
2024/02/15 07:43:06;;;;;;;9.07;8.10;;;7.70;99.90;;;8.66;100.00;98370.50;10422417;28;20224;-65
2024/02/15 07:48:10;;;;;;;7.72;7.05;;;7.90;99.90;;;8.88;100.00;98372.94;10429637;28;20231;-66
2024/02/15 07:53:13;;;;;;;7.97;7.28;;;8.20;99.90;;;9.17;100.00;98375.00;10434747;28;20233;-65
2024/02/15 07:58:18;;;;;;;8.20;7.32;;;8.40;99.90;;;9.67;100.00;98359.75;10433139;28;20269;-65
2024/02/15 08:08:30;;;;;;;5.90;5.35;;;9.40;99.90;;;10.39;100.00;98351.88;10306401;28;20263;-67
2024/02/15 08:13:33;;;;;;;8.75;6.72;;;9.70;99.90;;;10.78;100.00;98352.66;10312139;28;20594;-67
2024/02/15 08:18:37;;;;;;;8.73;6.95;;;10.10;99.90;;;10.98;100.00;98321.56;10313627;28;20219;-68
2024/02/15 08:23:42;;;;;;;8.02;7.32;;;10.30;99.90;;;11.25;100.00;98314.75;10315167;28;20557;-67
2024/02/15 08:28:45;;;;;;;6.40;5.13;;;10.60;99.90;;;11.63;97.95;98299.94;10313329;28;20235;-67
2024/02/15 08:33:48;;;;;;;5.82;4.10;;;11.00;99.90;;;12.05;94.18;98291.38;10311710;28;20235;-66
2024/02/15 08:38:53;;;;;;;4.25;3.72;;;11.40;99.90;;;12.08;95.25;98285.56;10308465;28;20717;-67
2024/02/15 08:43:58;;;;;;;3.80;3.50;;;11.40;99.90;;;12.25;94.71;98276.28;10314955;28;20231;-66
2024/02/15 08:49:02;;;;;;;3.35;2.88;;;11.50;99.90;;;12.63;93.59;98252.78;10310636;28;20227;-67
2024/02/15 08:54:08;;;;;;;4.50;3.35;;;12.00;99.90;;;13.28;88.90;98255.50;10313619;28;20386;-66
2024/02/15 08:59:12;;;;;;;4.10;3.65;;;12.70;99.90;;;13.78;85.27;98243.50;10310965;28;20227;-67
2024/02/15 09:04:15;;;;;;;5.53;4.07;;;13.20;99.90;;;13.92;85.05;98245.06;10309293;28;20606;-67
2024/02/15 09:09:19;;;;;;;4.63;3.72;;;13.30;99.90;;;13.97;84.87;98238.47;10309811;28;20922;-67
2024/02/15 09:14:23;;;;;;;5.72;5.22;;;13.20;99.90;;;14.09;83.99;98237.31;10310815;28;20242;-67
2024/02/15 09:19:26;;;;;;;5.47;4.07;;;13.30;99.90;;;14.13;83.70;98244.34;10309418;28;20612;-67
2024/02/15 09:24:32;;;;;;;5.10;4.60;;;13.40;99.90;;;14.41;81.84;98244.91;10310132;28;20715;-67
2024/02/15 09:29:38;;;;;;;3.38;3.08;;;13.70;99.90;;;14.49;82.13;98239.25;10307476;28;20238;-67
2024/02/15 09:34:42;;;;;;;3.50;3.20;;;13.90;99.90;;;14.67;80.17;98237.56;10311523;28;20718;-67
2024/02/15 09:39:47;;;;;;;5.10;3.83;;;14.10;99.90;;;15.02;78.78;98234.06;10310986;28;20254;-66
2024/02/15 09:44:51;;;;;;;5.97;5.10;;;14.50;99.90;;;15.30;77.18;98236.19;10308955;28;20714;-67
2024/02/15 09:49:56;;;;;;;3.70;2.80;;;14.70;99.90;;;15.40;74.12;98222.03;10318086;28;20726;-68
2024/02/15 09:55:03;;;;;;;4.30;1.83;;;14.90;99.90;;;15.76;70.27;98222.75;10313494;28;20231;-67
2024/02/15 10:00:08;;;;;;;2.42;1.95;;;15.20;99.90;;;15.72;67.73;98228.59;10311221;28;20219;-68
2024/02/15 10:05:12;;;;;;;1.98;1.52;;;15.20;99.90;;;16.11;62.81;98225.03;10311400;28;20285;-67
2024/02/15 10:10:19;;;;;;;4.25;1.77;;;15.50;99.90;;;15.94;64.28;98221.78;10310692;28;20250;-68
2024/02/15 10:15:32;;;;;;;3.63;1.80;;;15.50;99.90;;;16.15;64.44;98221.78;10312083;28;20813;-68
2024/02/15 10:20:38;;;;;;;2.97;1.73;;;15.70;99.90;;;16.27;59.56;98217.13;10314675;28;20233;-68
2024/02/15 10:25:42;;;;;;;2.22;1.33;;;15.80;99.90;;;16.30;57.38;98211.19;10310801;28;20234;-68
2024/02/15 10:30:48;;;;;;;2.75;1.48;;;15.90;99.90;;;16.36;57.57;98195.97;10316626;28;20358;-68
2024/02/15 10:35:51;;;;;;;2.05;1.58;;;16.00;99.90;;;16.38;56.96;98189.16;10315945;28;20242;-68
2024/02/15 10:41:05;;;;;;;2.55;1.25;;;16.10;99.90;;;16.12;57.04;98185.56;10314755;28;20230;-68
2024/02/15 10:46:10;;;;;;;1.60;1.40;;;15.80;99.90;;;16.05;58.62;98178.38;10312393;28;20235;-67
2024/02/15 10:51:17;;;;;;;3.28;1.75;;;15.70;99.90;;;16.35;56.79;98173.56;10310322;28;20227;-68
2024/02/15 10:56:29;;;;;;;1.48;1.38;;;15.90;99.90;;;15.89;57.93;98164.00;10309833;28;20895;-68
2024/02/15 11:01:35;;;;;;;3.17;2.00;;;15.60;99.90;;;16.07;58.75;98162.16;10311424;28;20757;-67
2024/02/15 11:06:44;;;;;;;2.17;1.35;;;15.70;99.90;;;16.35;57.86;98155.50;10311310;28;20235;-69
2024/02/15 11:11:51;;;;;;;1.70;1.23;;;15.90;99.90;;;16.42;57.35;98142.00;10312482;28;20743;-66
2024/02/15 11:16:56;;;;;;;2.03;1.20;;;16.00;99.90;;;16.47;58.06;98139.63;10308101;28;20223;-68
2024/02/15 11:22:03;;;;;;;1.92;1.30;;;16.00;99.90;;;16.62;56.69;98135.91;10310913;28;20231;-65
2024/02/15 11:27:08;;;;;;;1.38;1.10;;;16.10;99.90;;;16.54;55.66;98128.69;10306582;28;20245;-68
2024/02/15 11:32:39;;;;;;;1.80;1.27;;;16.00;99.90;;;16.48;55.69;98131.94;10307415;28;20710;-67
2024/02/15 11:37:55;;;;;;;2.13;1.33;;;16.10;99.90;;;16.49;55.52;98115.63;10309691;28;20338;-67
2024/02/15 11:43:02;;;;;;;1.38;1.27;;;16.00;99.90;;;16.62;55.88;98112.69;10306361;28;20219;-67
2024/02/15 11:48:11;;;;;;;1.30;1.20;;;16.10;99.90;;;16.90;54.81;98108.56;10303910;28;20239;-67
2024/02/15 11:53:16;;;;;;;1.50;1.40;;;16.30;99.90;;;16.85;55.18;98098.09;10305948;28;20317;-68
2024/02/15 11:58:28;;;;;;;1.48;1.27;;;16.40;99.90;;;16.59;56.41;98098.78;10302887;28;20718;-67
2024/02/15 12:19:55;;;;;;;1.60;1.40;;;16.60;99.90;;;16.98;54.23;98072.69;10304178;28;20310;-67
2024/02/15 12:25:01;;;;;;;2.15;1.25;;;16.60;99.90;;;17.06;53.98;98064.41;10306373;28;20738;-68
2024/02/15 12:30:08;;;;;;;2.50;1.20;;;16.60;99.90;;;17.18;55.56;98057.91;10308118;28;20229;-67
2024/02/15 12:35:16;;;;;;;1.83;1.60;;;16.60;99.90;;;16.97;56.79;98064.09;10313383;28;20231;-68
2024/02/15 12:40:22;;;;;;;1.80;1.40;;;16.30;99.90;;;17.18;55.43;98056.19;10311753;28;20278;-67
2024/02/15 12:45:29;;;;;;;2.53;1.23;;;16.50;99.90;;;17.34;54.60;98055.03;10313978;28;20633;-68
2024/02/15 12:50:33;;;;;;;1.85;1.10;;;16.60;99.90;;;17.23;54.21;98044.31;10313589;28;20271;-69
2024/02/15 12:55:39;;;;;;;3.17;1.27;;;16.60;99.90;;;17.18;54.36;98032.06;10315086;28;20227;-68
2024/02/15 13:00:43;;;;;;;1.45;1.27;;;16.60;99.90;;;17.10;54.70;98030.09;10309741;28;20237;-68
2024/02/15 13:05:47;;;;;;;2.42;1.65;;;16.40;99.90;;;17.09;55.32;98012.84;10313839;28;20238;-67
2024/02/15 13:10:51;;;;;;;2.38;1.20;;;16.40;99.90;;;17.15;55.70;97996.69;10309161;28;20255;-68
2024/02/15 13:15:56;;;;;;;4.45;1.75;;;16.40;99.90;;;17.08;54.57;97995.59;10312996;28;20664;-68
2024/02/15 13:20:59;;;;;;;1.95;1.60;;;16.40;99.90;;;16.73;54.70;97990.88;10311163;28;20218;-68
2024/02/15 13:26:07;;;;;;;2.97;2.05;;;16.30;99.90;;;17.14;55.44;97987.19;10308482;28;20241;-67
2024/02/15 13:31:13;;;;;;;1.60;1.50;;;16.40;99.90;;;17.02;54.33;97985.03;10311516;28;20593;-67
2024/02/15 13:36:16;;;;;;;2.25;1.55;;;16.40;99.90;;;17.09;54.96;97976.69;10312082;28;20242;-67
2024/02/15 13:41:19;;;;;;;2.08;1.83;;;16.50;99.90;;;16.99;55.33;97963.41;10313185;28;20309;-66
2024/02/15 13:46:24;;;;;;;2.60;1.52;;;16.40;99.90;;;17.06;55.40;97961.09;10310631;28;20230;-68
2024/02/15 13:51:27;;;;;;;1.75;1.60;;;16.40;99.90;;;17.08;55.50;97954.28;10309802;28;20238;-67
2024/02/15 13:56:30;;;;;;;1.70;1.60;;;16.50;99.90;;;17.14;54.53;97952.69;10309298;28;20363;-67
2024/02/15 14:01:42;;;;;;;3.80;2.00;;;16.50;99.90;;;17.03;55.54;97950.66;10311786;28;20231;-67
2024/02/15 14:06:46;;;;;;;4.03;1.90;;;16.40;99.90;;;17.17;55.12;97942.47;10310203;28;20231;-67
2024/02/15 14:11:49;;;;;;;2.10;1.90;;;16.50;99.90;;;17.08;55.44;97941.38;10309466;28;20230;-68
2024/02/15 14:16:54;;;;;;;2.20;1.67;;;16.40;99.90;;;17.05;55.38;97943.84;10307768;28;20310;-68
2024/02/15 14:21:57;;;;;;;2.95;2.00;;;16.30;99.90;;;16.97;56.02;97934.97;10309718;28;20223;-67
2024/02/15 14:27:00;;;;;;;3.22;1.77;;;16.30;99.90;;;16.81;56.54;97930.09;10308104;28;20231;-67
2024/02/15 14:37:26;;;;;;;2.22;1.95;;;16.30;99.90;;;16.90;57.54;97933.00;10310278;28;20250;-67
2024/02/15 14:42:29;;;;;;;3.90;2.10;;;16.20;99.90;;;16.90;57.79;97917.50;10307924;28;20583;-67
2024/02/15 14:47:33;;;;;;;3.30;1.83;;;16.20;99.90;;;16.93;57.82;97925.34;10307901;28;21006;-68
2024/02/15 14:52:37;;;;;;;2.25;1.95;;;16.20;99.90;;;16.87;57.32;97919.97;10308840;28;20254;-67
2024/02/15 14:57:40;;;;;;;2.20;1.80;;;16.20;99.90;;;16.68;58.48;97921.03;10314024;28;20246;-67
2024/02/15 15:02:46;;;;;;;2.38;1.98;;;16.00;99.90;;;16.92;58.18;97922.72;10314088;28;20230;-67
2024/02/15 15:13:10;;;;;;;2.45;2.10;;;16.10;99.90;;;16.58;58.42;97919.84;10291190;28;20317;-67
2024/02/15 15:18:15;;;;;;;2.50;2.00;;;16.00;99.90;;;16.63;58.50;97912.28;10302634;28;20262;-67
2024/02/15 15:23:19;;;;;;;2.63;2.10;;;15.90;99.90;;;16.66;58.08;97905.50;10306002;28;20273;-67
2024/02/15 15:28:23;;;;;;;3.15;2.35;;;15.90;99.90;;;16.58;58.33;97909.53;10299772;28;20250;-67
2024/02/15 15:33:28;;;;;;;2.40;2.17;;;15.90;99.90;;;16.27;58.57;97897.25;10301639;28;20573;-67
2024/02/15 15:38:31;;;;;;;2.78;2.58;;;15.80;99.90;;;16.28;59.11;97903.28;10298973;28;20224;-67
2024/02/15 15:43:35;;;;;;;2.25;2.05;;;15.70;99.90;;;16.23;59.28;97897.13;10311522;28;20302;-67
2024/02/15 15:48:39;;;;;;;2.88;2.47;;;15.70;99.90;;;16.19;59.88;97885.78;10311941;28;20231;-68
2024/02/15 15:53:44;;;;;;;2.97;2.40;;;15.60;99.90;;;16.02;60.64;97895.50;10302118;28;20420;-68
2024/02/15 15:58:48;;;;;;;2.92;2.63;;;15.40;99.90;;;16.12;61.22;97887.28;10309228;28;20717;-68
2024/02/15 16:03:56;;;;;;;4.82;4.20;;;15.50;99.90;;;15.70;63.51;97897.78;10306737;28;20973;-66
2024/02/15 16:09:00;;;;;;;3.45;3.15;;;15.20;99.90;;;15.83;63.02;97898.25;10309531;28;20675;-67
2024/02/15 16:14:05;;;;;;;4.90;4.60;;;15.10;99.90;;;15.51;64.44;97901.34;10308922;28;20231;-67
2024/02/15 16:19:10;;;;;;;4.30;3.95;;;14.90;99.90;;;15.46;64.60;97912.28;10316030;28;20252;-67
2024/02/15 16:24:13;;;;;;;4.63;3.83;;;14.80;99.90;;;15.38;64.82;97901.66;10315080;28;20226;-67
2024/02/15 16:29:17;;;;;;;3.33;3.03;;;14.60;99.90;;;15.40;64.17;97906.91;10322186;28;20634;-67
2024/02/15 16:34:22;;;;;;;3.80;3.45;;;14.60;99.90;;;15.19;65.10;97901.75;10315003;28;20239;-66
2024/02/15 16:39:25;;;;;;;4.47;3.72;;;14.50;99.90;;;15.23;65.56;97894.22;10311644;28;20599;-67
2024/02/15 16:44:28;;;;;;;3.33;2.70;;;14.40;99.90;;;15.20;66.05;97881.25;10320068;28;20237;-67
2024/02/15 16:49:33;;;;;;;3.15;2.85;;;14.40;99.90;;;15.06;66.96;97874.66;10313337;28;20235;-67
2024/02/15 16:54:36;;;;;;;3.47;3.17;;;14.40;99.90;;;14.86;67.31;97879.91;10314717;28;20231;-66
2024/02/15 16:59:39;;;;;;;4.80;4.43;;;14.20;99.90;;;14.77;67.62;97882.09;10315527;28;20234;-67
2024/02/15 17:04:44;;;;;;;4.90;3.00;;;14.10;99.90;;;14.46;68.99;97873.91;10313177;28;20793;-66
2024/02/15 17:09:47;;;;;;;3.38;3.08;;;13.80;99.90;;;14.31;69.28;97880.16;10314866;28;20257;-66
2024/02/15 17:14:50;;;;;;;3.70;3.40;;;13.60;99.90;;;14.11;70.25;97870.69;10317466;28;20454;-65
2024/02/15 17:19:55;;;;;;;3.47;3.17;;;13.50;99.90;;;13.98;70.98;97875.28;10311372;28;20234;-65
2024/02/15 17:24:59;;;;;;;3.63;3.33;;;13.30;99.90;;;13.92;72.90;97885.31;10311854;28;20223;-65
2024/02/15 17:30:03;;;;;;;4.32;2.92;;;13.20;99.90;;;13.73;74.14;97890.41;10313027;28;20313;-66
2024/02/15 17:35:11;;;;;;;4.50;4.10;;;13.00;99.90;;;13.65;73.22;97891.75;10306281;28;20242;-65
2024/02/15 17:40:14;;;;;;;5.47;3.53;;;12.90;99.90;;;13.48;73.66;97893.59;10308408;28;20711;-66
2024/02/15 17:45:18;;;;;;;3.42;2.92;;;12.80;99.90;;;13.42;73.84;97890.72;10302511;28;20250;-67
2024/02/15 17:50:25;;;;;;;4.35;3.95;;;12.80;99.90;;;13.36;74.47;97883.59;10306377;28;20252;-67
2024/02/15 17:55:28;;;;;;;6.05;5.55;;;12.70;99.90;;;13.17;77.62;97886.09;10308672;28;20239;-65
2024/02/15 18:00:33;;;;;;;6.82;5.93;;;12.50;99.90;;;12.96;79.74;97879.16;10309899;28;20234;-65
2024/02/15 18:05:46;;;;;;;8.35;6.72;;;12.20;99.90;;;12.67;81.82;97884.53;10311106;28;20230;-66
2024/02/15 18:10:49;;;;;;;8.43;7.00;;;11.90;99.90;;;12.44;82.51;97891.09;10307136;28;20242;-65
2024/02/15 18:15:52;;;;;;;5.90;5.32;;;11.70;99.90;;;12.28;82.77;97884.31;10307321;28;20698;-65
2024/02/15 18:20:57;;;;;;;4.68;4.28;;;11.40;99.90;;;12.19;83.16;97889.88;10312069;28;20798;-65
2024/02/15 18:26:01;;;;;;;6.18;5.55;;;11.30;99.90;;;12.13;83.56;97895.56;10306023;28;21320;-66
2024/02/15 18:31:07;;;;;;;5.93;5.25;;;11.30;99.90;;;11.93;85.43;97901.28;10304923;28;20325;-66
2024/02/15 18:36:11;;;;;;;7.72;7.03;;;11.10;99.90;;;11.75;87.46;97897.75;10304438;28;20231;-66
2024/02/15 18:41:15;;;;;;;4.18;3.88;;;10.80;99.90;;;11.53;88.91;97895.72;10308385;28;20231;-66
2024/02/15 18:46:18;;;;;;;4.65;4.22;;;10.60;99.90;;;11.25;90.00;97897.66;10306203;28;20227;-65
2024/02/15 18:51:24;;;;;;;4.45;4.05;;;10.50;99.90;;;11.16;90.58;97897.16;10307053;28;20228;-67
2024/02/15 18:56:28;;;;;;;4.15;3.60;;;10.30;99.90;;;11.09;90.86;97902.72;10304117;28;20612;-66
2024/02/15 19:01:32;;;;;;;4.18;3.72;;;10.30;99.90;;;10.77;92.18;97891.59;10306136;28;20604;-66
2024/02/15 19:06:39;;;;;;;3.70;3.40;;;10.10;99.90;;;10.67;93.37;97891.84;10303993;28;20238;-65
2024/02/15 19:11:43;;;;;;;2.42;2.33;;;10.00;99.90;;;10.74;92.02;97891.41;10304113;28;20855;-66
2024/02/15 19:16:46;;;;;;;4.15;3.30;;;10.00;99.90;;;10.83;92.12;97883.38;10302246;28;20231;-66
2024/02/15 19:21:52;;;;;;;4.10;3.53;;;10.00;99.90;;;10.83;92.27;97891.91;10299131;28;20614;-65
2024/02/15 19:26:55;;;;;;;4.07;3.78;;;10.00;99.90;;;10.62;92.93;97885.59;10300834;28;20305;-66
2024/02/15 19:31:58;;;;;;;3.83;3.53;;;9.90;99.90;;;10.63;92.49;97869.47;10303112;28;20486;-66
2024/02/15 19:37:03;;;;;;;5.07;3.72;;;9.90;99.90;;;10.41;94.28;97869.03;10303873;28;20230;-65
2024/02/15 19:42:17;;;;;;;4.07;3.78;;;9.70;99.90;;;10.36;94.50;97861.13;10301414;28;20719;-66
2024/02/15 19:47:21;;;;;;;3.65;3.35;;;9.70;99.90;;;10.26;94.43;97863.88;10310933;28;20237;-66
2024/02/15 19:52:25;;;;;;;3.85;3.20;;;9.60;99.90;;;10.48;95.00;97860.94;10308558;28;20227;-66
2024/02/15 19:57:28;;;;;;;3.30;2.97;;;9.70;99.90;;;10.21;95.76;97861.06;10306952;28;20702;-67
2024/02/15 20:02:32;;;;;;;4.22;3.83;;;9.50;99.90;;;10.11;96.30;97848.56;10309145;28;20750;-66
2024/02/15 20:07:37;;;;;;;4.88;4.40;;;9.50;99.90;;;10.03;95.52;97860.84;10306857;28;20637;-66
2024/02/15 20:12:40;;;;;;;3.40;2.88;;;9.30;99.90;;;10.03;96.00;97850.66;10307184;28;20225;-66
2024/02/15 20:17:44;;;;;;;4.45;2.80;;;9.30;99.90;;;9.99;96.49;97832.53;10311529;28;20656;-66
2024/02/15 20:22:49;;;;;;;3.70;3.40;;;9.30;99.90;;;9.79;98.07;97824.56;10313657;28;21025;-66
2024/02/15 20:27:52;;;;;;;4.63;3.20;;;9.20;99.90;;;9.67;98.18;97828.91;10306064;28;20234;-66
2024/02/15 20:32:56;;;;;;;4.28;3.10;;;9.10;99.90;;;9.61;98.54;97841.31;10308229;28;20301;-66
2024/02/15 20:38:01;;;;;;;4.38;3.97;;;8.90;99.90;;;9.58;100.00;97830.91;10309639;28;20231;-65
2024/02/15 20:43:05;;;;;;;4.47;3.45;;;8.90;99.90;;;9.64;98.16;97833.84;10313255;28;20226;-66
2024/02/15 20:48:08;;;;;;;3.85;3.47;;;9.00;99.90;;;9.61;99.00;97836.19;10315320;28;20242;-66
2024/02/15 20:53:13;;;;;;;4.05;3.42;;;9.00;99.90;;;9.49;98.47;97833.78;10317552;28;20223;-66
2024/02/15 20:58:16;;;;;;;4.03;3.63;;;8.90;99.90;;;9.46;99.29;97839.59;10310248;28;20246;-66
2024/02/15 21:03:19;;;;;;;4.82;3.88;;;8.80;99.90;;;9.34;99.55;97833.75;10315063;28;20227;-66
2024/02/15 21:08:24;;;;;;;6.82;4.68;;;8.60;99.90;;;9.46;98.58;97848.91;10312138;28;20309;-66
2024/02/15 21:13:28;;;;;;;5.13;4.32;;;8.50;99.90;;;9.20;99.54;97839.66;10313517;28;20326;-65
2024/02/15 21:18:32;;;;;;;3.90;3.60;;;8.30;99.90;;;9.00;99.87;97846.94;10313840;28;20238;-65
2024/02/15 21:23:36;;;;;;;4.25;3.85;;;8.10;99.90;;;8.76;100.00;97825.03;10311873;28;20782;-66
2024/02/15 21:28:43;;;;;;;4.53;4.13;;;7.90;99.90;;;8.66;100.00;97827.78;10314078;28;20223;-65
2024/02/15 21:33:48;;;;;;;6.87;6.17;;;7.90;99.90;;;8.54;100.00;97807.50;10312713;28;20235;-66
2024/02/15 21:38:52;;;;;;;8.30;6.87;;;7.90;99.90;;;8.63;100.00;97819.94;10316210;28;20318;-65
2024/02/15 21:43:56;;;;;;;6.47;5.70;;;7.90;99.90;;;8.63;100.00;97823.38;10310913;28;20227;-65
2024/02/15 21:48:59;;;;;;;5.70;4.67;;;7.90;99.90;;;8.54;100.00;97827.88;10307654;28;20223;-65
2024/02/15 21:54:04;;;;;;;9.82;8.77;;;7.80;99.90;;;8.48;100.00;97828.34;10310106;28;20723;-66